sensor_id;sensor_type;location;lat;lon;timestamp;P1;durP1;ratioP1;P2;durP2;ratioP2
37647;SDS011;23490;53.656;10.076;2022-07-29T00:01:31;4.47;;;1.27;;
37647;SDS011;23490;53.656;10.076;2022-07-29T00:03:56;3.08;;;1.30;;
37647;SDS011;23490;53.656;10.076;2022-07-29T00:06:21;3.10;;;1.30;;
37647;SDS011;23490;53.656;10.076;2022-07-29T00:08:47;2.63;;;1.23;;
37647;SDS011;23490;53.656;10.076;2022-07-29T00:11:12;5.00;;;1.38;;
37647;SDS011;23490;53.656;10.076;2022-07-29T00:13:37;4.13;;;1.60;;
37647;SDS011;23490;53.656;10.076;2022-07-29T00:16:04;2.97;;;1.17;;
37647;SDS011;23490;53.656;10.076;2022-07-29T00:18:29;4.22;;;1.40;;
37647;SDS011;23490;53.656;10.076;2022-07-29T00:20:54;2.00;;;1.05;;
37647;SDS011;23490;53.656;10.076;2022-07-29T00:23:19;5.35;;;1.50;;
37647;SDS011;23490;53.656;10.076;2022-07-29T00:25:45;4.10;;;1.55;;
37647;SDS011;23490;53.656;10.076;2022-07-29T00:28:10;2.78;;;1.13;;
37647;SDS011;23490;53.656;10.076;2022-07-29T00:30:35;4.85;;;1.27;;
37647;SDS011;23490;53.656;10.076;2022-07-29T00:33:01;5.45;;;1.60;;
37647;SDS011;23490;53.656;10.076;2022-07-29T00:35:26;4.47;;;1.20;;
37647;SDS011;23490;53.656;10.076;2022-07-29T00:38:10;5.93;;;1.25;;
37647;SDS011;23490;53.656;10.076;2022-07-29T00:40:37;4.15;;;1.50;;
37647;SDS011;23490;53.656;10.076;2022-07-29T00:43:03;2.53;;;1.20;;
37647;SDS011;23490;53.656;10.076;2022-07-29T00:45:28;3.00;;;1.45;;
37647;SDS011;23490;53.656;10.076;2022-07-29T00:47:55;6.00;;;1.58;;
37647;SDS011;23490;53.656;10.076;2022-07-29T00:50:20;4.95;;;1.60;;
37647;SDS011;23490;53.656;10.076;2022-07-29T00:52:46;5.75;;;2.15;;
37647;SDS011;23490;53.656;10.076;2022-07-29T00:55:12;4.25;;;1.83;;
37647;SDS011;23490;53.656;10.076;2022-07-29T00:57:40;3.08;;;1.40;;
37647;SDS011;23490;53.656;10.076;2022-07-29T01:00:07;2.10;;;1.25;;
37647;SDS011;23490;53.656;10.076;2022-07-29T01:02:35;5.18;;;1.35;;
37647;SDS011;23490;53.656;10.076;2022-07-29T01:05:01;4.95;;;1.73;;
37647;SDS011;23490;53.656;10.076;2022-07-29T01:07:27;4.53;;;1.60;;
37647;SDS011;23490;53.656;10.076;2022-07-29T01:09:54;2.97;;;1.45;;
37647;SDS011;23490;53.656;10.076;2022-07-29T01:12:23;4.47;;;1.45;;
37647;SDS011;23490;53.656;10.076;2022-07-29T01:14:50;5.72;;;1.50;;
37647;SDS011;23490;53.656;10.076;2022-07-29T01:17:26;6.50;;;1.83;;
37647;SDS011;23490;53.656;10.076;2022-07-29T01:20:06;6.28;;;1.45;;
37647;SDS011;23490;53.656;10.076;2022-07-29T01:28:20;6.35;;;2.15;;
37647;SDS011;23490;53.656;10.076;2022-07-29T01:31:00;4.88;;;1.60;;
37647;SDS011;23490;53.656;10.076;2022-07-29T01:33:29;2.70;;;1.40;;
37647;SDS011;23490;53.656;10.076;2022-07-29T01:36:17;4.40;;;1.73;;
37647;SDS011;23490;53.656;10.076;2022-07-29T01:38:50;4.00;;;1.90;;
37647;SDS011;23490;53.656;10.076;2022-07-29T01:41:22;6.68;;;1.73;;
37647;SDS011;23490;53.656;10.076;2022-07-29T01:43:53;3.65;;;1.52;;
37647;SDS011;23490;53.656;10.076;2022-07-29T01:46:27;4.43;;;1.67;;
37647;SDS011;23490;53.656;10.076;2022-07-29T01:49:00;2.85;;;1.45;;
37647;SDS011;23490;53.656;10.076;2022-07-29T01:51:33;4.32;;;1.85;;
37647;SDS011;23490;53.656;10.076;2022-07-29T01:54:16;3.38;;;1.80;;
37647;SDS011;23490;53.656;10.076;2022-07-29T01:56:48;4.35;;;1.52;;
37647;SDS011;23490;53.656;10.076;2022-07-29T01:59:16;5.00;;;1.60;;
37647;SDS011;23490;53.656;10.076;2022-07-29T02:01:43;6.30;;;1.80;;
37647;SDS011;23490;53.656;10.076;2022-07-29T02:04:11;4.25;;;2.00;;
37647;SDS011;23490;53.656;10.076;2022-07-29T02:06:40;6.03;;;1.83;;
37647;SDS011;23490;53.656;10.076;2022-07-29T02:09:07;3.75;;;1.52;;
37647;SDS011;23490;53.656;10.076;2022-07-29T02:11:35;3.28;;;1.70;;
37647;SDS011;23490;53.656;10.076;2022-07-29T02:14:03;4.15;;;1.92;;
37647;SDS011;23490;53.656;10.076;2022-07-29T02:16:30;3.72;;;1.60;;
37647;SDS011;23490;53.656;10.076;2022-07-29T02:18:57;5.80;;;1.67;;
37647;SDS011;23490;53.656;10.076;2022-07-29T02:21:25;7.60;;;1.80;;
37647;SDS011;23490;53.656;10.076;2022-07-29T02:23:52;4.88;;;2.03;;
37647;SDS011;23490;53.656;10.076;2022-07-29T02:26:20;5.22;;;1.50;;
37647;SDS011;23490;53.656;10.076;2022-07-29T02:28:47;5.35;;;2.00;;
37647;SDS011;23490;53.656;10.076;2022-07-29T02:31:15;5.10;;;1.88;;
37647;SDS011;23490;53.656;10.076;2022-07-29T02:33:43;6.82;;;2.58;;
37647;SDS011;23490;53.656;10.076;2022-07-29T02:36:11;6.20;;;1.90;;
37647;SDS011;23490;53.656;10.076;2022-07-29T02:38:37;5.95;;;1.80;;
37647;SDS011;23490;53.656;10.076;2022-07-29T02:41:16;7.75;;;1.80;;
37647;SDS011;23490;53.656;10.076;2022-07-29T02:43:45;6.35;;;1.98;;
37647;SDS011;23490;53.656;10.076;2022-07-29T02:46:15;5.38;;;1.98;;
37647;SDS011;23490;53.656;10.076;2022-07-29T02:48:51;4.07;;;2.05;;
37647;SDS011;23490;53.656;10.076;2022-07-29T02:51:24;6.15;;;1.98;;
37647;SDS011;23490;53.656;10.076;2022-07-29T02:56:20;4.43;;;1.70;;
37647;SDS011;23490;53.656;10.076;2022-07-29T02:58:54;4.60;;;1.98;;
37647;SDS011;23490;53.656;10.076;2022-07-29T03:01:22;6.10;;;1.92;;
37647;SDS011;23490;53.656;10.076;2022-07-29T03:03:50;4.88;;;1.88;;
37647;SDS011;23490;53.656;10.076;2022-07-29T03:06:19;5.63;;;2.03;;
37647;SDS011;23490;53.656;10.076;2022-07-29T03:08:46;5.43;;;1.90;;
37647;SDS011;23490;53.656;10.076;2022-07-29T03:11:13;4.57;;;1.90;;
37647;SDS011;23490;53.656;10.076;2022-07-29T03:13:40;6.72;;;2.47;;
37647;SDS011;23490;53.656;10.076;2022-07-29T03:16:06;4.97;;;1.90;;
37647;SDS011;23490;53.656;10.076;2022-07-29T03:18:33;7.18;;;2.08;;
37647;SDS011;23490;53.656;10.076;2022-07-29T03:20:59;4.38;;;1.80;;
37647;SDS011;23490;53.656;10.076;2022-07-29T03:23:24;5.13;;;2.10;;
37647;SDS011;23490;53.656;10.076;2022-07-29T03:25:52;5.05;;;2.25;;
37647;SDS011;23490;53.656;10.076;2022-07-29T03:28:18;4.13;;;2.22;;
37647;SDS011;23490;53.656;10.076;2022-07-29T03:30:44;6.88;;;1.98;;
37647;SDS011;23490;53.656;10.076;2022-07-29T03:33:10;4.78;;;1.80;;
37647;SDS011;23490;53.656;10.076;2022-07-29T03:35:35;3.92;;;2.17;;
37647;SDS011;23490;53.656;10.076;2022-07-29T03:38:01;4.47;;;1.92;;
37647;SDS011;23490;53.656;10.076;2022-07-29T03:40:28;4.68;;;1.98;;
37647;SDS011;23490;53.656;10.076;2022-07-29T03:43:03;4.78;;;2.40;;
37647;SDS011;23490;53.656;10.076;2022-07-29T03:45:31;4.55;;;2.10;;
37647;SDS011;23490;53.656;10.076;2022-07-29T03:48:04;5.60;;;2.25;;
37647;SDS011;23490;53.656;10.076;2022-07-29T03:50:33;4.28;;;2.08;;
37647;SDS011;23490;53.656;10.076;2022-07-29T03:53:00;6.32;;;2.00;;
37647;SDS011;23490;53.656;10.076;2022-07-29T03:55:28;5.72;;;2.10;;
37647;SDS011;23490;53.656;10.076;2022-07-29T03:57:57;3.83;;;1.90;;
37647;SDS011;23490;53.656;10.076;2022-07-29T04:00:23;3.63;;;1.83;;
37647;SDS011;23490;53.656;10.076;2022-07-29T04:02:50;8.02;;;2.45;;
37647;SDS011;23490;53.656;10.076;2022-07-29T04:05:18;4.18;;;1.80;;
37647;SDS011;23490;53.656;10.076;2022-07-29T04:07:44;6.85;;;2.15;;
37647;SDS011;23490;53.656;10.076;2022-07-29T04:10:10;5.97;;;2.08;;
37647;SDS011;23490;53.656;10.076;2022-07-29T04:12:35;4.20;;;2.13;;
37647;SDS011;23490;53.656;10.076;2022-07-29T04:15:01;4.75;;;2.15;;
37647;SDS011;23490;53.656;10.076;2022-07-29T04:17:28;5.57;;;2.15;;
37647;SDS011;23490;53.656;10.076;2022-07-29T04:19:53;4.78;;;2.35;;
37647;SDS011;23490;53.656;10.076;2022-07-29T04:22:18;6.40;;;2.40;;
37647;SDS011;23490;53.656;10.076;2022-07-29T04:24:44;4.13;;;1.95;;
37647;SDS011;23490;53.656;10.076;2022-07-29T04:27:09;6.45;;;2.33;;
37647;SDS011;23490;53.656;10.076;2022-07-29T04:29:34;4.68;;;2.10;;
37647;SDS011;23490;53.656;10.076;2022-07-29T04:32:00;5.82;;;2.40;;
37647;SDS011;23490;53.656;10.076;2022-07-29T04:34:25;6.88;;;2.20;;
37647;SDS011;23490;53.656;10.076;2022-07-29T04:36:51;6.40;;;2.50;;
37647;SDS011;23490;53.656;10.076;2022-07-29T04:39:16;6.07;;;2.60;;
37647;SDS011;23490;53.656;10.076;2022-07-29T04:41:43;8.95;;;2.55;;
37647;SDS011;23490;53.656;10.076;2022-07-29T04:44:08;6.53;;;2.40;;
37647;SDS011;23490;53.656;10.076;2022-07-29T04:46:33;5.85;;;2.28;;
37647;SDS011;23490;53.656;10.076;2022-07-29T04:49:00;6.40;;;2.40;;
37647;SDS011;23490;53.656;10.076;2022-07-29T04:51:26;4.70;;;2.15;;
37647;SDS011;23490;53.656;10.076;2022-07-29T04:53:51;5.60;;;2.20;;
37647;SDS011;23490;53.656;10.076;2022-07-29T04:56:16;5.40;;;2.00;;
37647;SDS011;23490;53.656;10.076;2022-07-29T04:58:41;4.53;;;2.60;;
37647;SDS011;23490;53.656;10.076;2022-07-29T05:01:07;4.45;;;1.95;;
37647;SDS011;23490;53.656;10.076;2022-07-29T05:03:32;5.53;;;2.20;;
37647;SDS011;23490;53.656;10.076;2022-07-29T05:05:57;7.53;;;2.10;;
37647;SDS011;23490;53.656;10.076;2022-07-29T05:08:23;7.03;;;2.92;;
37647;SDS011;23490;53.656;10.076;2022-07-29T05:10:48;4.45;;;2.33;;
37647;SDS011;23490;53.656;10.076;2022-07-29T05:13:13;5.85;;;2.67;;
37647;SDS011;23490;53.656;10.076;2022-07-29T05:15:39;8.82;;;2.80;;
37647;SDS011;23490;53.656;10.076;2022-07-29T05:18:04;5.80;;;2.15;;
37647;SDS011;23490;53.656;10.076;2022-07-29T05:20:30;6.13;;;2.58;;
37647;SDS011;23490;53.656;10.076;2022-07-29T05:22:56;8.15;;;2.00;;
37647;SDS011;23490;53.656;10.076;2022-07-29T05:25:23;6.88;;;2.25;;
37647;SDS011;23490;53.656;10.076;2022-07-29T05:27:49;8.80;;;2.58;;
37647;SDS011;23490;53.656;10.076;2022-07-29T05:30:15;5.93;;;2.42;;
37647;SDS011;23490;53.656;10.076;2022-07-29T05:32:40;7.10;;;2.40;;
37647;SDS011;23490;53.656;10.076;2022-07-29T05:35:05;4.97;;;2.38;;
37647;SDS011;23490;53.656;10.076;2022-07-29T05:37:31;5.40;;;2.30;;
37647;SDS011;23490;53.656;10.076;2022-07-29T05:39:56;8.02;;;2.10;;
37647;SDS011;23490;53.656;10.076;2022-07-29T05:42:22;7.32;;;2.53;;
37647;SDS011;23490;53.656;10.076;2022-07-29T05:44:47;6.68;;;2.40;;
37647;SDS011;23490;53.656;10.076;2022-07-29T05:47:12;5.10;;;2.00;;
37647;SDS011;23490;53.656;10.076;2022-07-29T05:49:38;4.53;;;2.15;;
37647;SDS011;23490;53.656;10.076;2022-07-29T05:52:04;3.55;;;2.00;;
37647;SDS011;23490;53.656;10.076;2022-07-29T05:54:29;5.82;;;2.28;;
37647;SDS011;23490;53.656;10.076;2022-07-29T05:56:54;4.80;;;2.10;;
37647;SDS011;23490;53.656;10.076;2022-07-29T05:59:20;5.25;;;2.22;;
37647;SDS011;23490;53.656;10.076;2022-07-29T06:01:46;10.60;;;2.42;;
37647;SDS011;23490;53.656;10.076;2022-07-29T06:04:11;4.53;;;2.22;;
37647;SDS011;23490;53.656;10.076;2022-07-29T06:06:36;6.90;;;2.60;;
37647;SDS011;23490;53.656;10.076;2022-07-29T06:09:02;7.00;;;2.17;;
37647;SDS011;23490;53.656;10.076;2022-07-29T06:11:28;7.65;;;2.08;;
37647;SDS011;23490;53.656;10.076;2022-07-29T06:13:53;6.75;;;2.20;;
37647;SDS011;23490;53.656;10.076;2022-07-29T06:16:18;7.43;;;2.38;;
37647;SDS011;23490;53.656;10.076;2022-07-29T06:18:44;7.85;;;2.10;;
37647;SDS011;23490;53.656;10.076;2022-07-29T06:21:09;5.88;;;2.10;;
37647;SDS011;23490;53.656;10.076;2022-07-29T06:23:38;5.65;;;2.00;;
37647;SDS011;23490;53.656;10.076;2022-07-29T06:26:04;7.10;;;1.98;;
37647;SDS011;23490;53.656;10.076;2022-07-29T06:28:30;6.18;;;2.22;;
37647;SDS011;23490;53.656;10.076;2022-07-29T06:30:56;5.85;;;2.17;;
37647;SDS011;23490;53.656;10.076;2022-07-29T06:33:21;6.60;;;2.17;;
37647;SDS011;23490;53.656;10.076;2022-07-29T06:35:46;5.90;;;2.35;;
37647;SDS011;23490;53.656;10.076;2022-07-29T06:38:12;6.00;;;2.60;;
37647;SDS011;23490;53.656;10.076;2022-07-29T06:40:41;4.93;;;1.98;;
37647;SDS011;23490;53.656;10.076;2022-07-29T06:43:30;6.57;;;2.42;;
37647;SDS011;23490;53.656;10.076;2022-07-29T06:46:07;4.90;;;1.90;;
37647;SDS011;23490;53.656;10.076;2022-07-29T06:48:34;7.97;;;2.40;;
37647;SDS011;23490;53.656;10.076;2022-07-29T06:51:01;9.15;;;2.35;;
37647;SDS011;23490;53.656;10.076;2022-07-29T06:53:27;5.60;;;1.75;;
37647;SDS011;23490;53.656;10.076;2022-07-29T06:55:52;3.53;;;1.92;;
37647;SDS011;23490;53.656;10.076;2022-07-29T06:58:18;4.78;;;2.10;;
37647;SDS011;23490;53.656;10.076;2022-07-29T07:00:45;5.38;;;2.40;;
37647;SDS011;23490;53.656;10.076;2022-07-29T07:03:12;3.55;;;1.83;;
37647;SDS011;23490;53.656;10.076;2022-07-29T07:05:37;6.18;;;2.20;;
37647;SDS011;23490;53.656;10.076;2022-07-29T07:08:03;4.55;;;2.00;;
37647;SDS011;23490;53.656;10.076;2022-07-29T07:10:28;3.70;;;1.60;;
37647;SDS011;23490;53.656;10.076;2022-07-29T07:12:54;3.97;;;1.88;;
37647;SDS011;23490;53.656;10.076;2022-07-29T07:15:19;6.57;;;2.05;;
37647;SDS011;23490;53.656;10.076;2022-07-29T07:17:47;4.88;;;1.67;;
37647;SDS011;23490;53.656;10.076;2022-07-29T07:20:14;6.50;;;1.70;;
37647;SDS011;23490;53.656;10.076;2022-07-29T07:22:39;5.10;;;2.05;;
37647;SDS011;23490;53.656;10.076;2022-07-29T07:25:05;6.13;;;1.95;;
37647;SDS011;23490;53.656;10.076;2022-07-29T07:27:31;4.28;;;1.83;;
37647;SDS011;23490;53.656;10.076;2022-07-29T07:29:56;3.45;;;1.80;;
37647;SDS011;23490;53.656;10.076;2022-07-29T07:32:22;3.50;;;1.70;;
37647;SDS011;23490;53.656;10.076;2022-07-29T07:34:47;5.15;;;2.05;;
37647;SDS011;23490;53.656;10.076;2022-07-29T07:37:12;3.88;;;1.88;;
37647;SDS011;23490;53.656;10.076;2022-07-29T07:39:39;5.45;;;1.80;;
37647;SDS011;23490;53.656;10.076;2022-07-29T07:42:04;4.03;;;1.90;;
37647;SDS011;23490;53.656;10.076;2022-07-29T07:44:30;4.80;;;1.90;;
37647;SDS011;23490;53.656;10.076;2022-07-29T07:46:55;4.40;;;1.75;;
37647;SDS011;23490;53.656;10.076;2022-07-29T07:49:20;4.68;;;1.70;;
37647;SDS011;23490;53.656;10.076;2022-07-29T07:51:46;5.38;;;1.70;;
37647;SDS011;23490;53.656;10.076;2022-07-29T07:54:11;7.72;;;2.00;;
37647;SDS011;23490;53.656;10.076;2022-07-29T07:56:36;4.22;;;2.25;;
37647;SDS011;23490;53.656;10.076;2022-07-29T07:59:02;5.78;;;1.88;;
37647;SDS011;23490;53.656;10.076;2022-07-29T08:01:27;5.13;;;2.25;;
37647;SDS011;23490;53.656;10.076;2022-07-29T08:03:52;3.50;;;1.60;;
37647;SDS011;23490;53.656;10.076;2022-07-29T08:06:18;5.80;;;1.70;;
37647;SDS011;23490;53.656;10.076;2022-07-29T08:08:43;5.68;;;1.80;;
37647;SDS011;23490;53.656;10.076;2022-07-29T08:11:08;4.80;;;1.58;;
37647;SDS011;23490;53.656;10.076;2022-07-29T08:13:34;5.65;;;2.00;;
37647;SDS011;23490;53.656;10.076;2022-07-29T08:15:59;4.65;;;2.30;;
37647;SDS011;23490;53.656;10.076;2022-07-29T08:18:26;3.65;;;1.60;;
37647;SDS011;23490;53.656;10.076;2022-07-29T08:20:53;4.85;;;1.67;;
37647;SDS011;23490;53.656;10.076;2022-07-29T08:23:19;4.45;;;2.00;;
37647;SDS011;23490;53.656;10.076;2022-07-29T08:25:44;7.00;;;1.92;;
37647;SDS011;23490;53.656;10.076;2022-07-29T08:28:10;5.90;;;2.10;;
37647;SDS011;23490;53.656;10.076;2022-07-29T08:30:35;5.22;;;1.73;;
37647;SDS011;23490;53.656;10.076;2022-07-29T08:33:00;7.35;;;1.90;;
37647;SDS011;23490;53.656;10.076;2022-07-29T08:35:26;5.18;;;1.63;;
37647;SDS011;23490;53.656;10.076;2022-07-29T08:37:52;5.00;;;1.75;;
37647;SDS011;23490;53.656;10.076;2022-07-29T08:40:19;6.55;;;1.65;;
37647;SDS011;23490;53.656;10.076;2022-07-29T08:42:45;5.22;;;1.75;;
37647;SDS011;23490;53.656;10.076;2022-07-29T08:45:11;4.20;;;1.65;;
37647;SDS011;23490;53.656;10.076;2022-07-29T08:47:38;3.65;;;1.83;;
37647;SDS011;23490;53.656;10.076;2022-07-29T08:50:07;3.08;;;1.63;;
37647;SDS011;23490;53.656;10.076;2022-07-29T08:52:38;6.68;;;1.92;;
37647;SDS011;23490;53.656;10.076;2022-07-29T08:55:05;3.85;;;1.85;;
37647;SDS011;23490;53.656;10.076;2022-07-29T08:57:32;6.07;;;1.98;;
37647;SDS011;23490;53.656;10.076;2022-07-29T08:59:59;3.38;;;1.60;;
37647;SDS011;23490;53.656;10.076;2022-07-29T09:02:25;5.18;;;1.95;;
37647;SDS011;23490;53.656;10.076;2022-07-29T09:04:54;5.33;;;1.83;;
37647;SDS011;23490;53.656;10.076;2022-07-29T09:07:21;5.32;;;1.85;;
37647;SDS011;23490;53.656;10.076;2022-07-29T09:09:46;4.78;;;1.92;;
37647;SDS011;23490;53.656;10.076;2022-07-29T09:12:12;5.55;;;1.65;;
37647;SDS011;23490;53.656;10.076;2022-07-29T09:14:38;4.25;;;1.77;;
37647;SDS011;23490;53.656;10.076;2022-07-29T09:17:04;2.85;;;1.60;;
37647;SDS011;23490;53.656;10.076;2022-07-29T09:19:31;4.45;;;1.73;;
37647;SDS011;23490;53.656;10.076;2022-07-29T09:22:00;4.00;;;1.60;;
37647;SDS011;23490;53.656;10.076;2022-07-29T09:27:07;6.05;;;1.75;;
37647;SDS011;23490;53.656;10.076;2022-07-29T09:29:42;3.45;;;1.60;;
37647;SDS011;23490;53.656;10.076;2022-07-29T09:32:09;4.10;;;1.67;;
37647;SDS011;23490;53.656;10.076;2022-07-29T09:34:35;5.20;;;1.80;;
37647;SDS011;23490;53.656;10.076;2022-07-29T09:37:01;4.32;;;1.48;;
37647;SDS011;23490;53.656;10.076;2022-07-29T09:41:57;2.55;;;1.48;;
37647;SDS011;23490;53.656;10.076;2022-07-29T09:44:25;4.60;;;1.45;;
37647;SDS011;23490;53.656;10.076;2022-07-29T09:49:23;4.55;;;1.65;;
37647;SDS011;23490;53.656;10.076;2022-07-29T09:51:58;8.05;;;1.90;;
37647;SDS011;23490;53.656;10.076;2022-07-29T09:54:26;2.50;;;1.40;;
37647;SDS011;23490;53.656;10.076;2022-07-29T09:56:53;5.40;;;1.80;;
37647;SDS011;23490;53.656;10.076;2022-07-29T09:59:19;3.05;;;1.60;;
37647;SDS011;23490;53.656;10.076;2022-07-29T10:01:51;4.80;;;1.75;;
37647;SDS011;23490;53.656;10.076;2022-07-29T10:04:17;3.72;;;1.35;;
37647;SDS011;23490;53.656;10.076;2022-07-29T10:13:11;4.32;;;1.67;;
37647;SDS011;23490;53.656;10.076;2022-07-29T10:15:38;2.58;;;1.40;;
37647;SDS011;23490;53.656;10.076;2022-07-29T10:18:12;5.32;;;1.60;;
37647;SDS011;23490;53.656;10.076;2022-07-29T10:20:39;4.05;;;1.48;;
37647;SDS011;23490;53.656;10.076;2022-07-29T10:23:05;2.85;;;1.30;;
37647;SDS011;23490;53.656;10.076;2022-07-29T10:25:30;3.35;;;1.42;;
37647;SDS011;23490;53.656;10.076;2022-07-29T10:27:56;5.22;;;1.45;;
37647;SDS011;23490;53.656;10.076;2022-07-29T10:30:23;2.92;;;1.38;;
37647;SDS011;23490;53.656;10.076;2022-07-29T10:35:40;2.03;;;1.35;;
37647;SDS011;23490;53.656;10.076;2022-07-29T10:38:20;4.18;;;1.20;;
37647;SDS011;23490;53.656;10.076;2022-07-29T10:46:53;4.82;;;1.33;;
37647;SDS011;23490;53.656;10.076;2022-07-29T10:49:20;3.50;;;1.55;;
37647;SDS011;23490;53.656;10.076;2022-07-29T10:54:15;3.47;;;1.40;;
37647;SDS011;23490;53.656;10.076;2022-07-29T10:56:40;4.72;;;1.30;;
37647;SDS011;23490;53.656;10.076;2022-07-29T11:01:52;5.63;;;1.85;;
37647;SDS011;23490;53.656;10.076;2022-07-29T11:04:58;3.72;;;1.60;;
37647;SDS011;23490;53.656;10.076;2022-07-29T11:07:09;4.53;;;1.35;;
37647;SDS011;23490;53.656;10.076;2022-07-29T11:09:35;5.35;;;1.52;;
37647;SDS011;23490;53.656;10.076;2022-07-29T11:12:00;3.42;;;1.20;;
37647;SDS011;23490;53.656;10.076;2022-07-29T11:14:54;3.22;;;1.27;;
37647;SDS011;23490;53.656;10.076;2022-07-29T11:17:20;2.88;;;1.42;;
37647;SDS011;23490;53.656;10.076;2022-07-29T11:19:46;5.80;;;1.70;;
37647;SDS011;23490;53.656;10.076;2022-07-29T11:22:12;4.25;;;1.45;;
37647;SDS011;23490;53.656;10.076;2022-07-29T11:25:12;2.63;;;1.20;;
37647;SDS011;23490;53.656;10.076;2022-07-29T11:27:38;2.80;;;1.42;;
37647;SDS011;23490;53.656;10.076;2022-07-29T11:30:04;3.70;;;1.20;;
37647;SDS011;23490;53.656;10.076;2022-07-29T11:32:37;5.38;;;1.23;;
37647;SDS011;23490;53.656;10.076;2022-07-29T11:37:43;5.18;;;1.30;;
37647;SDS011;23490;53.656;10.076;2022-07-29T11:40:10;4.55;;;1.38;;
37647;SDS011;23490;53.656;10.076;2022-07-29T11:42:38;5.15;;;1.20;;
37647;SDS011;23490;53.656;10.076;2022-07-29T11:45:04;6.28;;;1.85;;
37647;SDS011;23490;53.656;10.076;2022-07-29T11:47:38;4.35;;;1.40;;
37647;SDS011;23490;53.656;10.076;2022-07-29T11:50:10;6.82;;;1.50;;
37647;SDS011;23490;53.656;10.076;2022-07-29T11:52:38;5.60;;;1.50;;
37647;SDS011;23490;53.656;10.076;2022-07-29T11:55:18;2.78;;;1.20;;
37647;SDS011;23490;53.656;10.076;2022-07-29T11:57:48;5.40;;;1.35;;
37647;SDS011;23490;53.656;10.076;2022-07-29T12:02:52;2.45;;;1.30;;
37647;SDS011;23490;53.656;10.076;2022-07-29T12:05:18;5.60;;;1.33;;
37647;SDS011;23490;53.656;10.076;2022-07-29T12:07:44;4.03;;;1.30;;
37647;SDS011;23490;53.656;10.076;2022-07-29T12:10:09;3.33;;;1.45;;
37647;SDS011;23490;53.656;10.076;2022-07-29T12:12:35;3.75;;;1.33;;
37647;SDS011;23490;53.656;10.076;2022-07-29T12:15:10;3.72;;;1.23;;
37647;SDS011;23490;53.656;10.076;2022-07-29T12:17:44;3.45;;;1.60;;
37647;SDS011;23490;53.656;10.076;2022-07-29T12:20:10;5.95;;;1.45;;
37647;SDS011;23490;53.656;10.076;2022-07-29T12:22:39;4.03;;;1.55;;
37647;SDS011;23490;53.656;10.076;2022-07-29T12:25:10;3.83;;;1.52;;
37647;SDS011;23490;53.656;10.076;2022-07-29T12:27:39;5.53;;;1.65;;
37647;SDS011;23490;53.656;10.076;2022-07-29T12:30:09;7.95;;;1.75;;
37647;SDS011;23490;53.656;10.076;2022-07-29T12:32:37;5.78;;;1.55;;
37647;SDS011;23490;53.656;10.076;2022-07-29T12:35:05;4.97;;;1.53;;
37647;SDS011;23490;53.656;10.076;2022-07-29T12:37:33;4.40;;;1.38;;
37647;SDS011;23490;53.656;10.076;2022-07-29T12:40:00;4.97;;;1.48;;
37647;SDS011;23490;53.656;10.076;2022-07-29T12:42:26;4.53;;;1.42;;
37647;SDS011;23490;53.656;10.076;2022-07-29T12:44:51;3.97;;;1.58;;
37647;SDS011;23490;53.656;10.076;2022-07-29T12:47:17;3.55;;;1.50;;
37647;SDS011;23490;53.656;10.076;2022-07-29T12:49:44;4.63;;;1.60;;
37647;SDS011;23490;53.656;10.076;2022-07-29T12:52:23;3.65;;;1.58;;
37647;SDS011;23490;53.656;10.076;2022-07-29T12:57:14;4.70;;;1.83;;
37647;SDS011;23490;53.656;10.076;2022-07-29T12:59:39;6.70;;;1.70;;
37647;SDS011;23490;53.656;10.076;2022-07-29T13:02:05;5.63;;;2.33;;
37647;SDS011;23490;53.656;10.076;2022-07-29T13:04:32;5.35;;;1.90;;
37647;SDS011;23490;53.656;10.076;2022-07-29T13:07:07;6.07;;;1.80;;
37647;SDS011;23490;53.656;10.076;2022-07-29T13:09:43;4.90;;;1.58;;
37647;SDS011;23490;53.656;10.076;2022-07-29T13:12:11;3.47;;;1.70;;
37647;SDS011;23490;53.656;10.076;2022-07-29T13:14:45;6.78;;;1.88;;
37647;SDS011;23490;53.656;10.076;2022-07-29T13:17:16;3.70;;;1.50;;
37647;SDS011;23490;53.656;10.076;2022-07-29T13:19:44;5.53;;;1.58;;
37647;SDS011;23490;53.656;10.076;2022-07-29T13:22:15;6.93;;;1.83;;
37647;SDS011;23490;53.656;10.076;2022-07-29T13:24:55;4.53;;;1.70;;
37647;SDS011;23490;53.656;10.076;2022-07-29T13:27:23;4.40;;;1.80;;
37647;SDS011;23490;53.656;10.076;2022-07-29T13:29:50;3.15;;;1.60;;
37647;SDS011;23490;53.656;10.076;2022-07-29T13:32:17;6.53;;;1.90;;
37647;SDS011;23490;53.656;10.076;2022-07-29T13:34:46;4.35;;;2.03;;
37647;SDS011;23490;53.656;10.076;2022-07-29T13:37:11;7.20;;;2.15;;
37647;SDS011;23490;53.656;10.076;2022-07-29T13:39:37;6.80;;;1.60;;
37647;SDS011;23490;53.656;10.076;2022-07-29T13:42:02;4.20;;;1.80;;
37647;SDS011;23490;53.656;10.076;2022-07-29T13:44:28;3.72;;;1.70;;
37647;SDS011;23490;53.656;10.076;2022-07-29T13:46:54;4.55;;;2.08;;
37647;SDS011;23490;53.656;10.076;2022-07-29T13:49:19;7.47;;;2.35;;
37647;SDS011;23490;53.656;10.076;2022-07-29T13:51:44;5.28;;;2.00;;
37647;SDS011;23490;53.656;10.076;2022-07-29T13:54:10;4.25;;;1.77;;
37647;SDS011;23490;53.656;10.076;2022-07-29T13:56:35;3.42;;;1.55;;
37647;SDS011;23490;53.656;10.076;2022-07-29T13:59:00;6.85;;;1.77;;
37647;SDS011;23490;53.656;10.076;2022-07-29T14:01:25;6.22;;;1.60;;
37647;SDS011;23490;53.656;10.076;2022-07-29T14:03:52;6.57;;;2.20;;
37647;SDS011;23490;53.656;10.076;2022-07-29T14:06:17;7.50;;;2.40;;
37647;SDS011;23490;53.656;10.076;2022-07-29T14:08:43;4.65;;;1.77;;
37647;SDS011;23490;53.656;10.076;2022-07-29T14:11:08;3.83;;;2.00;;
37647;SDS011;23490;53.656;10.076;2022-07-29T14:13:33;5.28;;;1.70;;
37647;SDS011;23490;53.656;10.076;2022-07-29T14:15:59;4.25;;;1.75;;
37647;SDS011;23490;53.656;10.076;2022-07-29T14:18:24;6.32;;;1.80;;
37647;SDS011;23490;53.656;10.076;2022-07-29T14:20:50;7.45;;;1.98;;
37647;SDS011;23490;53.656;10.076;2022-07-29T14:23:16;4.05;;;1.58;;
37647;SDS011;23490;53.656;10.076;2022-07-29T14:25:42;5.60;;;1.77;;
37647;SDS011;23490;53.656;10.076;2022-07-29T14:28:08;4.00;;;2.28;;
37647;SDS011;23490;53.656;10.076;2022-07-29T14:30:33;2.67;;;1.67;;
37647;SDS011;23490;53.656;10.076;2022-07-29T14:32:58;4.13;;;1.60;;
37647;SDS011;23490;53.656;10.076;2022-07-29T14:35:24;3.55;;;1.50;;
37647;SDS011;23490;53.656;10.076;2022-07-29T14:37:49;6.20;;;1.70;;
37647;SDS011;23490;53.656;10.076;2022-07-29T14:40:14;6.57;;;1.98;;
37647;SDS011;23490;53.656;10.076;2022-07-29T14:42:40;6.18;;;1.83;;
37647;SDS011;23490;53.656;10.076;2022-07-29T14:45:06;6.85;;;2.38;;
37647;SDS011;23490;53.656;10.076;2022-07-29T14:47:33;4.95;;;1.70;;
37647;SDS011;23490;53.656;10.076;2022-07-29T14:49:58;10.00;;;2.22;;
37647;SDS011;23490;53.656;10.076;2022-07-29T14:52:24;4.13;;;1.70;;
37647;SDS011;23490;53.656;10.076;2022-07-29T14:54:49;6.18;;;2.10;;
37647;SDS011;23490;53.656;10.076;2022-07-29T14:57:15;4.57;;;1.70;;
37647;SDS011;23490;53.656;10.076;2022-07-29T14:59:41;4.65;;;1.55;;
37647;SDS011;23490;53.656;10.076;2022-07-29T15:02:07;8.65;;;1.95;;
37647;SDS011;23490;53.656;10.076;2022-07-29T15:04:32;5.00;;;1.70;;
37647;SDS011;23490;53.656;10.076;2022-07-29T15:06:57;5.32;;;1.60;;
37647;SDS011;23490;53.656;10.076;2022-07-29T15:09:23;6.53;;;1.92;;
37647;SDS011;23490;53.656;10.076;2022-07-29T15:11:48;4.60;;;1.48;;
37647;SDS011;23490;53.656;10.076;2022-07-29T15:14:13;7.00;;;1.90;;
37647;SDS011;23490;53.656;10.076;2022-07-29T15:16:39;4.35;;;1.70;;
37647;SDS011;23490;53.656;10.076;2022-07-29T15:19:07;6.05;;;2.00;;